MET'MAP v2.0
soon released !

Expected late october,
this new version will be
more efficient, smarter,
and hosted on a brand new
server x3 powerfull...
...and still free !


Not compatible ?
Try the mobile version !

LOG IN : | Subscribe | Disclaimer | Who is Orbifly ? |
ICAO code :

TAF - DTTZ Nefta - Tozeur - 28 Feb 2020 01:45 UTC - Data Source NOAA   


- Airport Elevation : 287 ft
- IATA code : TOE
- No reported NOTAMs.


DTTZ - Nefta - Tozeur

Latest METAR recorded : 2015/08/11 08:00 DTTZ 110800Z 36005KT CAVOK 32/20 Q1013 NOSIG
TAF TAF DTTZ
Valid from the 28 at 00:00 until the 29 at 00:00 UTC


272300Z 2800/2824 26006KT CAVOK
BECMG 2806/2808 VRB03KT
BECMG 2809/2811 25008KT

Source NOAA


MET'MAP, your aeronautical weather chart ! - Copyright ORBIFLY December 2007

Programming & Development : Alexandra Zaïnal
Co-Developer : Marc-Olivier Méhu
Technical & hardware support : Manuel Goepfert
Concept & Financing : Baudouin d'Aumeries